EBCI - Charleroi/Gosselies, Belgium
Distance de la station: NE 18km
Mise à jour: 27/05/2022 19:50
quelques nuages
quelques nuages
 Wind from NNO
Vent: NNO 17 km/h
Température: 15°C
Point de rosée: 5°C
Humidité: 51%
Baromètre: 1023 hPa
Ciel: quelques nuages
Visibilité: 10 km
Détails du ciel: quelques nuages 1311 m
2022/05/27 17:50 EBCI 271750Z 33009KT 300V010 9999 FEW043 15/05 Q1023 NOSIG
EBFS - Florennes, Belgium
Distance de la station: ESE 31km
Mise à jour: 27/05/2022 19:55
partiellement nuageux
partiellement nuageux
 Wind from NNO
Vent: NNO 17 km/h
Température: 16°C
Point de rosée: 6°C
Humidité: 52%
Baromètre: 1023 hPa
Ciel: partiellement nuageux
Visibilité: 10 km
Détails du ciel: partiellement nuageux 4877 m
2022/05/27 17:55 EBFS 271755Z AUTO 34009KT 9999 SCT160/// 16/06 Q1023 BLU
EBCV - Chievres, Belgium
Distance de la station: NO 40km
Mise à jour: 27/05/2022 19:55
clair
clair
 Wind from NO
Vent: NO 19 km/h
Température: 16°C
Point de rosée: 5°C
Humidité: 48%
Baromètre: 1024 hPa
Ciel: clair
Visibilité: 10 km
2022/05/27 17:55 EBCV 271755Z AUTO 32010KT 9999 NCD 16/05 Q1024 BLU
 
EBBE - Beauvechain, Belgium
Distance de la station: NE 57km
Mise à jour: 27/05/2022 19:55
clair
clair
 Wind from NO
Vent: NO 19 km/h
Température: 15°C
Point de rosée: 4°C
Humidité: 48%
Baromètre: 1023 hPa
Ciel: clair
Visibilité: 10 km
2022/05/27 17:55 EBBE 271755Z AUTO 32010KT 9999 NCD 15/04 Q1023 BLU
EBBR - Brussels National, Belgium
Distance de la station: NNE 63km
Mise à jour: 27/05/2022 19:50
quelques nuages
quelques nuages
 Wind from NNO
Vent: NNO 15 km/h
Température: 15°C
Point de rosée: 3°C
Humidité: 45%
Baromètre: 1024 hPa
Ciel: quelques nuages
Visibilité: 10 km
Détails du ciel: quelques nuages 1372 m
2022/05/27 17:50 EBBR 271750Z 34008KT 300V020 9999 FEW045 15/03 Q1024 NOSIG
LFQI - Cambrai/Epinoy, France
Distance de la station: O 82km
Mise à jour: 29/06/2012 12:30
NOT Current

 Wind from SO
Vent: SO 17 km/h
Température: 18°C
Point de rosée: 14°C
Humidité: 78%
Baromètre: 1009 hPa
2012/06/29 10:30 LFQI 291030Z AUTO 22009KT //// // ///////// 18/14 Q1009
 
LFQQ - Lille/Lesquin, France
Distance de la station: ONO 86km
Mise à jour: 27/05/2022 20:00
clair
clair
 Wind from NNO
Vent: NNO 20 km/h
Température: 17°C
Point de rosée: 6°C
Humidité: 49%
Baromètre: 1024 hPa
Résumé: clair
Visibilité: greater than 10 km
2022/05/27 18:00 LFQQ 271800Z AUTO 33011KT CAVOK 17/06 Q1024 NOSIG
EBLG - Bierset/Liege, Belgium
Distance de la station: ENE 89km
Mise à jour: 27/05/2022 19:50
quelques nuages
quelques nuages
 Wind from NNO
Vent: NNO 19 km/h
Température: 15°C
Point de rosée: 4°C
Humidité: 48%
Baromètre: 1023 hPa
Ciel: quelques nuages
Visibilité: 10 km
Détails du ciel: quelques nuages 1372 m
2022/05/27 17:50 EBLG 271750Z 33010KT 310V010 9999 FEW045 15/04 Q1023 NOSIG
EBDT - Schaffen, Belgium
Distance de la station: NE 93km
Mise à jour: 27/05/2022 19:55
clair
clair
 Wind from N
Vent: N 20 km/h
Température: 15°C
Point de rosée: 4°C
Humidité: 48%
Baromètre: 1023 hPa
Ciel: clair
Visibilité: 10 km
2022/05/27 17:55 EBDT 271755Z AUTO 35011KT 9999 NCD 15/04 Q1023 BLU
 
EBAW - Antwerp/Deurne, Belgium
Distance de la station: N 96km
Mise à jour: 27/05/2022 19:50
quelques nuages
quelques nuages
 Wind from NO
Vent: NO 17 km/h
Température: 15°C
Point de rosée: 4°C
Humidité: 48%
Baromètre: 1024 hPa
Ciel: quelques nuages
Visibilité: 10 km
Détails du ciel: quelques nuages 1494 m
2022/05/27 17:50 EBAW 271750Z 31009KT 270V350 9999 FEW049 15/04 Q1024 NOSIG
LFAQ - Bray, France
Distance de la station: OSO 119km
Mise à jour: 27/05/2022 20:00
clair
clair
 Wind from ONO
Vent: ONO 19 km/h
Température: 17°C
Point de rosée: 9°C
Humidité: 59%
Baromètre: 1024 hPa
Résumé: clair
Visibilité: greater than 10 km
2022/05/27 18:00 LFAQ 271800Z AUTO 29010KT 270V330 CAVOK 17/09 Q1024
LFSR - Reims/Champagne, France
Distance de la station: S 120km
Mise à jour: 16/04/2012 09:00
NOT Current
partiellement nuageux
partiellement nuageux
 Wind from N
Vent: N 17 km/h
Température: 4°C
Température ressentie: 0°C
Point de rosée: 0°C
Humidité: 75%
Baromètre: 1022 hPa
Ciel: partiellement nuageux
Visibilité: 10 km
2012/04/16 07:00 LFSR 160700Z AUTO 01009KT 340V070 9999 NSC 04/00 Q1022
 
EHWO - Woensdrecht, Netherlands
Distance de la station: N 122km
Mise à jour: 27/05/2022 19:55
principalement nuageux
principalement nuageux
 Wind from ONO
Vent: ONO 11 km/h
Température: 15°C
Point de rosée: 7°C
Humidité: 59%
Baromètre: 1023 hPa
Ciel: principalement nuageux
Visibilité: 10 km
Détails du ciel: quelques nuages 1158 m
principalement nuageux 1280 m
2022/05/27 17:55 EHWO 271755Z AUTO 30006KT 250V010 9999 FEW038 BKN042 15/07 Q1023 BLU
EHBK - Zuid-Limburg, Netherlands
Distance de la station: ENE 123km
Mise à jour: 27/05/2022 19:55
clair
clair
 Wind from NNO
Vent: NNO 20 km/h
Température: 15°C
Point de rosée: 4°C
Humidité: 48%
Baromètre: 1022 hPa
Ciel: clair
Visibilité: 10 km
2022/05/27 17:55 EHBK 271755Z AUTO 33011KT 290V010 9999 NCD 15/04 Q1022 NOSIG
EBBL - Kleine-Brogel, Belgium
Distance de la station: NE 124km
Mise à jour: 27/05/2022 19:55
quelques nuages
quelques nuages
 Wind from NO
Vent: NO 13 km/h
Température: 14°C
Point de rosée: 4°C
Humidité: 51%
Baromètre: 1023 hPa
Ciel: quelques nuages
Visibilité: 10 km
Détails du ciel: quelques nuages 1463 m
2022/05/27 17:55 EBBL 271755Z AUTO 32007KT 9999 FEW048/// 14/04 Q1023 BLU
 
EBLB - Elsenborn, Belgium
Distance de la station: E 135km
Mise à jour: 27/05/2022 19:55
partiellement nuageux
partiellement nuageux
 Wind from NNO
Vent: NNO 19 km/h
Température: 12°C
Point de rosée: 4°C
Humidité: 58%
Baromètre: 1022 hPa
Ciel: partiellement nuageux
Visibilité: 10 km
Détails du ciel: partiellement nuageux 1097 m
2022/05/27 17:55 EBLB 271755Z AUTO 33010KT 9999 SCT036/// 12/04 Q1022 BLU
EBOS - Oostende Airport, Belgium
Distance de la station: NO 136km
Mise à jour: 27/05/2022 19:50
clair
clair
 Wind from O
Vent: O 11 km/h
Température: 15°C
Point de rosée: 7°C
Humidité: 59%
Baromètre: 1024 hPa
Résumé: clair
Visibilité: greater than 10 km
2022/05/27 17:50 EBOS 271750Z 27006KT CAVOK 15/07 Q1024 NOSIG
EBFN - Koksijde, Belgium
Distance de la station: NO 140km
Mise à jour: 27/05/2022 19:55
clair
clair
 Wind from ONO
Vent: ONO 13 km/h
Température: 16°C
Point de rosée: 6°C
Humidité: 52%
Baromètre: 1024 hPa
Ciel: clair
Visibilité: 10 km
2022/05/27 17:55 EBFN 271755Z AUTO 30007KT 9999 NCD 16/06 Q1024 BLU
 
ETNG - Geilenkirchen, Germany
Distance de la station: ENE 142km
Mise à jour: 27/05/2022 15:50
NOT Current
clair
clair
 Wind from ONO
Vent: ONO 35 km/h
Température: 19°C
Point de rosée: 7°C
Humidité: 46%
Baromètre: 1021 hPa
Résumé: clair
Visibilité: greater than 10 km
2022/05/27 13:50 ETNG 271350Z 29019KT CAVOK 19/07 Q1021 NOSIG
EHGR - Gilze-Rijen, Netherlands
Distance de la station: NNE 143km
Mise à jour: 27/05/2022 19:55
clair
clair
 Wind from ONO
Vent: ONO 17 km/h
Température: 15°C
Point de rosée: 5°C
Humidité: 51%
Baromètre: 1023 hPa
Ciel: clair
Visibilité: 10 km
2022/05/27 17:55 EHGR 271755Z AUTO 30009KT 270V350 9999 NCD 15/05 Q1023 BLU
EHEH - Eindhoven, Netherlands
Distance de la station: NNE 147km
Mise à jour: 27/05/2022 19:55
clair
clair
 Wind from NO
Vent: NO 19 km/h
Température: 15°C
Point de rosée: 5°C
Humidité: 51%
Baromètre: 1023 hPa
Ciel: clair
Visibilité: 10 km
2022/05/27 17:55 EHEH 271755Z AUTO 32010KT 260V010 9999 NCD 15/05 Q1023 BLU TEMPO 32014G25KT
 
ELLX - Luxembourg, Luxembourg
Distance de la station: ESE 162km
Mise à jour: 27/05/2022 19:50
partiellement nuageux
partiellement nuageux
 Wind from O
Vent: O 22 km/h
Température: 17°C
Point de rosée: 9°C
Humidité: 59%
Baromètre: 1021 hPa
Ciel: partiellement nuageux
Visibilité: 10 km
Détails du ciel: quelques nuages 1219 m
partiellement nuageux 1524 m
2022/05/27 17:50 ELLX 271750Z 27012KT 9999 FEW040 SCT050 17/09 Q1021 NOSIG
EHVK - Volkel, Netherlands
Distance de la station: NE 174km
Mise à jour: 27/05/2022 19:55
quelques nuages
quelques nuages
 Wind from ONO
Vent: ONO 17 km/h
Température: 14°C
Point de rosée: 4°C
Humidité: 51%
Baromètre: 1022 hPa
Ciel: quelques nuages
Visibilité: 10 km
Détails du ciel: quelques nuages 1311 m
2022/05/27 17:55 EHVK 271755Z AUTO 29009KT 240V340 9999 FEW043 14/04 Q1022 BLU
LFOK - Chalons/Vatry, France
Distance de la station: S 174km
Mise à jour: 27/05/2022 20:00
clair
clair
 Wind from O
Vent: O 13 km/h
Température: 19°C
Point de rosée: 11°C
Humidité: 60%
Baromètre: 1023 hPa
Résumé: clair
Visibilité: greater than 10 km
2022/05/27 18:00 LFOK 271800Z AUTO 27007KT CAVOK 19/11 Q1023 NOSIG
Script from Saratoga-Weather.org